sensor_id;sensor_type;location;lat;lon;timestamp;temperature;humidity
27114;DHT22;14648;49.730;8.614;2023-04-25T00:01:33;10.40;62.90
27114;DHT22;14648;49.730;8.614;2023-04-25T00:04:02;10.30;63.10
27114;DHT22;14648;49.730;8.614;2023-04-25T00:06:29;10.30;63.20
27114;DHT22;14648;49.730;8.614;2023-04-25T00:08:55;10.30;63.30
27114;DHT22;14648;49.730;8.614;2023-04-25T00:11:22;10.30;63.30
27114;DHT22;14648;49.730;8.614;2023-04-25T00:13:48;10.30;63.40
27114;DHT22;14648;49.730;8.614;2023-04-25T00:16:16;10.20;63.30
27114;DHT22;14648;49.730;8.614;2023-04-25T00:18:42;10.20;63.50
27114;DHT22;14648;49.730;8.614;2023-04-25T00:21:08;10.10;63.60
27114;DHT22;14648;49.730;8.614;2023-04-25T00:23:34;10.10;63.60
27114;DHT22;14648;49.730;8.614;2023-04-25T00:26:02;10.10;64.40
27114;DHT22;14648;49.730;8.614;2023-04-25T00:28:28;10.10;63.70
27114;DHT22;14648;49.730;8.614;2023-04-25T00:30:54;10.10;63.70
27114;DHT22;14648;49.730;8.614;2023-04-25T00:33:19;10.00;63.60
27114;DHT22;14648;49.730;8.614;2023-04-25T00:35:45;10.00;63.60
27114;DHT22;14648;49.730;8.614;2023-04-25T00:38:11;10.00;63.70
27114;DHT22;14648;49.730;8.614;2023-04-25T00:40:37;10.00;63.70
27114;DHT22;14648;49.730;8.614;2023-04-25T00:43:02;10.00;63.70
27114;DHT22;14648;49.730;8.614;2023-04-25T00:45:29;10.00;63.70
27114;DHT22;14648;49.730;8.614;2023-04-25T00:47:55;10.00;63.70
27114;DHT22;14648;49.730;8.614;2023-04-25T00:50:22;10.00;63.70
27114;DHT22;14648;49.730;8.614;2023-04-25T00:52:48;10.00;63.80
27114;DHT22;14648;49.730;8.614;2023-04-25T00:55:14;10.00;63.80
27114;DHT22;14648;49.730;8.614;2023-04-25T00:57:41;9.90;63.90
27114;DHT22;14648;49.730;8.614;2023-04-25T01:00:08;9.90;63.80
27114;DHT22;14648;49.730;8.614;2023-04-25T01:02:35;9.90;63.80
27114;DHT22;14648;49.730;8.614;2023-04-25T01:05:02;9.90;63.90
27114;DHT22;14648;49.730;8.614;2023-04-25T01:07:28;9.90;63.90
27114;DHT22;14648;49.730;8.614;2023-04-25T01:09:54;9.90;64.00
27114;DHT22;14648;49.730;8.614;2023-04-25T01:12:19;9.90;64.10
27114;DHT22;14648;49.730;8.614;2023-04-25T01:14:46;9.90;64.10
27114;DHT22;14648;49.730;8.614;2023-04-25T01:17:12;9.90;64.90
27114;DHT22;14648;49.730;8.614;2023-04-25T01:19:38;9.90;64.20
27114;DHT22;14648;49.730;8.614;2023-04-25T01:22:04;10.00;64.20
27114;DHT22;14648;49.730;8.614;2023-04-25T01:24:33;9.90;64.10
27114;DHT22;14648;49.730;8.614;2023-04-25T01:27:00;10.00;64.10
27114;DHT22;14648;49.730;8.614;2023-04-25T01:29:26;10.00;64.10
27114;DHT22;14648;49.730;8.614;2023-04-25T01:31:53;10.00;64.10
27114;DHT22;14648;49.730;8.614;2023-04-25T01:34:19;10.00;64.10
27114;DHT22;14648;49.730;8.614;2023-04-25T01:36:45;10.00;64.30
27114;DHT22;14648;49.730;8.614;2023-04-25T01:39:13;10.00;64.30
27114;DHT22;14648;49.730;8.614;2023-04-25T01:41:38;10.00;64.40
27114;DHT22;14648;49.730;8.614;2023-04-25T01:44:04;9.90;64.50
27114;DHT22;14648;49.730;8.614;2023-04-25T01:46:32;9.90;64.50
27114;DHT22;14648;49.730;8.614;2023-04-25T01:48:58;9.90;64.50
27114;DHT22;14648;49.730;8.614;2023-04-25T01:51:24;9.80;64.50
27114;DHT22;14648;49.730;8.614;2023-04-25T01:53:50;9.80;64.70
27114;DHT22;14648;49.730;8.614;2023-04-25T01:56:17;9.70;65.00
27114;DHT22;14648;49.730;8.614;2023-04-25T01:58:43;9.80;65.00
27114;DHT22;14648;49.730;8.614;2023-04-25T02:01:09;9.70;65.00
27114;DHT22;14648;49.730;8.614;2023-04-25T02:03:36;9.80;65.00
27114;DHT22;14648;49.730;8.614;2023-04-25T02:06:02;9.80;64.90
27114;DHT22;14648;49.730;8.614;2023-04-25T02:08:28;9.80;65.00
27114;DHT22;14648;49.730;8.614;2023-04-25T02:10:53;9.80;64.90
27114;DHT22;14648;49.730;8.614;2023-04-25T02:13:19;9.90;65.00
27114;DHT22;14648;49.730;8.614;2023-04-25T02:15:45;9.90;65.10
27114;DHT22;14648;49.730;8.614;2023-04-25T02:18:10;9.90;65.00
27114;DHT22;14648;49.730;8.614;2023-04-25T02:20:36;9.90;65.00
27114;DHT22;14648;49.730;8.614;2023-04-25T02:23:03;9.90;65.80
27114;DHT22;14648;49.730;8.614;2023-04-25T02:25:29;9.80;65.20
27114;DHT22;14648;49.730;8.614;2023-04-25T02:27:55;9.80;65.20
27114;DHT22;14648;49.730;8.614;2023-04-25T02:30:20;9.80;65.20
27114;DHT22;14648;49.730;8.614;2023-04-25T02:32:46;9.80;65.40
27114;DHT22;14648;49.730;8.614;2023-04-25T02:35:12;9.80;65.60
27114;DHT22;14648;49.730;8.614;2023-04-25T02:37:39;9.80;65.60
27114;DHT22;14648;49.730;8.614;2023-04-25T02:40:05;9.80;65.60
27114;DHT22;14648;49.730;8.614;2023-04-25T02:42:32;9.80;65.60
27114;DHT22;14648;49.730;8.614;2023-04-25T02:44:58;9.80;65.60
27114;DHT22;14648;49.730;8.614;2023-04-25T02:47:23;9.90;65.80
27114;DHT22;14648;49.730;8.614;2023-04-25T02:49:49;9.90;65.80
27114;DHT22;14648;49.730;8.614;2023-04-25T02:52:15;9.90;65.80
27114;DHT22;14648;49.730;8.614;2023-04-25T02:54:40;9.90;65.80
27114;DHT22;14648;49.730;8.614;2023-04-25T02:57:06;9.90;65.90
27114;DHT22;14648;49.730;8.614;2023-04-25T02:59:32;9.90;66.00
27114;DHT22;14648;49.730;8.614;2023-04-25T03:01:58;9.90;65.90
27114;DHT22;14648;49.730;8.614;2023-04-25T03:04:24;9.90;65.90
27114;DHT22;14648;49.730;8.614;2023-04-25T03:06:50;9.90;66.00
27114;DHT22;14648;49.730;8.614;2023-04-25T03:09:17;9.90;66.00
27114;DHT22;14648;49.730;8.614;2023-04-25T03:11:44;9.80;66.00
27114;DHT22;14648;49.730;8.614;2023-04-25T03:14:10;9.90;66.10
27114;DHT22;14648;49.730;8.614;2023-04-25T03:16:36;9.80;66.10
27114;DHT22;14648;49.730;8.614;2023-04-25T03:19:03;9.80;66.10
27114;DHT22;14648;49.730;8.614;2023-04-25T03:21:30;9.80;66.10
27114;DHT22;14648;49.730;8.614;2023-04-25T03:23:57;9.80;66.10
27114;DHT22;14648;49.730;8.614;2023-04-25T03:26:23;9.80;66.20
27114;DHT22;14648;49.730;8.614;2023-04-25T03:28:49;9.80;66.30
27114;DHT22;14648;49.730;8.614;2023-04-25T03:31:15;9.90;66.30
27114;DHT22;14648;49.730;8.614;2023-04-25T03:33:41;9.90;66.20
27114;DHT22;14648;49.730;8.614;2023-04-25T03:36:07;10.00;66.10
27114;DHT22;14648;49.730;8.614;2023-04-25T03:38:33;10.00;66.00
27114;DHT22;14648;49.730;8.614;2023-04-25T03:40:58;10.00;65.90
27114;DHT22;14648;49.730;8.614;2023-04-25T03:43:24;10.00;65.90
27114;DHT22;14648;49.730;8.614;2023-04-25T03:45:50;9.90;66.00
27114;DHT22;14648;49.730;8.614;2023-04-25T03:48:16;9.90;66.20
27114;DHT22;14648;49.730;8.614;2023-04-25T03:50:44;9.90;66.30
27114;DHT22;14648;49.730;8.614;2023-04-25T03:53:10;9.90;66.40
27114;DHT22;14648;49.730;8.614;2023-04-25T03:55:36;9.90;66.50
27114;DHT22;14648;49.730;8.614;2023-04-25T03:58:01;9.90;66.40
27114;DHT22;14648;49.730;8.614;2023-04-25T04:00:27;9.90;66.50
27114;DHT22;14648;49.730;8.614;2023-04-25T04:02:53;9.90;66.50
27114;DHT22;14648;49.730;8.614;2023-04-25T04:05:18;9.90;66.40
27114;DHT22;14648;49.730;8.614;2023-04-25T04:07:44;10.00;66.40
27114;DHT22;14648;49.730;8.614;2023-04-25T04:10:10;10.00;66.20
27114;DHT22;14648;49.730;8.614;2023-04-25T04:12:37;10.00;66.20
27114;DHT22;14648;49.730;8.614;2023-04-25T04:15:04;10.00;66.20
27114;DHT22;14648;49.730;8.614;2023-04-25T04:17:31;10.00;66.30
27114;DHT22;14648;49.730;8.614;2023-04-25T04:19:57;10.00;66.30
27114;DHT22;14648;49.730;8.614;2023-04-25T04:22:23;10.00;66.30
27114;DHT22;14648;49.730;8.614;2023-04-25T04:24:50;10.00;66.30
27114;DHT22;14648;49.730;8.614;2023-04-25T04:27:17;10.00;66.30
27114;DHT22;14648;49.730;8.614;2023-04-25T04:29:44;10.10;66.40
27114;DHT22;14648;49.730;8.614;2023-04-25T04:32:10;10.10;66.30
27114;DHT22;14648;49.730;8.614;2023-04-25T04:34:36;10.10;66.30
27114;DHT22;14648;49.730;8.614;2023-04-25T04:37:02;10.10;66.30
27114;DHT22;14648;49.730;8.614;2023-04-25T04:39:28;10.10;66.30
27114;DHT22;14648;49.730;8.614;2023-04-25T04:41:54;10.10;66.40
27114;DHT22;14648;49.730;8.614;2023-04-25T04:44:19;10.10;66.40
27114;DHT22;14648;49.730;8.614;2023-04-25T04:46:46;10.10;66.40
27114;DHT22;14648;49.730;8.614;2023-04-25T04:49:11;10.10;66.40
27114;DHT22;14648;49.730;8.614;2023-04-25T04:51:39;10.20;66.40
27114;DHT22;14648;49.730;8.614;2023-04-25T04:54:05;10.20;67.20
27114;DHT22;14648;49.730;8.614;2023-04-25T04:56:32;10.20;66.40
27114;DHT22;14648;49.730;8.614;2023-04-25T04:58:58;10.20;66.40
27114;DHT22;14648;49.730;8.614;2023-04-25T05:01:24;10.20;66.40
27114;DHT22;14648;49.730;8.614;2023-04-25T05:03:51;10.20;66.40
27114;DHT22;14648;49.730;8.614;2023-04-25T05:06:18;10.20;66.40
27114;DHT22;14648;49.730;8.614;2023-04-25T05:08:44;10.20;66.40
27114;DHT22;14648;49.730;8.614;2023-04-25T05:11:10;10.20;66.40
27114;DHT22;14648;49.730;8.614;2023-04-25T05:13:37;10.30;66.60
27114;DHT22;14648;49.730;8.614;2023-04-25T05:16:02;10.30;66.60
27114;DHT22;14648;49.730;8.614;2023-04-25T05:18:28;10.20;66.50
27114;DHT22;14648;49.730;8.614;2023-04-25T05:20:55;10.30;66.70
27114;DHT22;14648;49.730;8.614;2023-04-25T05:23:20;10.30;66.60
27114;DHT22;14648;49.730;8.614;2023-04-25T05:25:46;10.30;66.70
27114;DHT22;14648;49.730;8.614;2023-04-25T05:28:13;10.40;66.60
27114;DHT22;14648;49.730;8.614;2023-04-25T05:30:39;10.40;66.70
27114;DHT22;14648;49.730;8.614;2023-04-25T05:33:04;10.40;66.70
27114;DHT22;14648;49.730;8.614;2023-04-25T05:35:30;10.40;66.70
27114;DHT22;14648;49.730;8.614;2023-04-25T05:37:56;10.40;66.70
27114;DHT22;14648;49.730;8.614;2023-04-25T05:40:22;10.40;66.80
27114;DHT22;14648;49.730;8.614;2023-04-25T05:42:47;10.40;66.70
27114;DHT22;14648;49.730;8.614;2023-04-25T05:45:13;10.40;66.70
27114;DHT22;14648;49.730;8.614;2023-04-25T05:47:39;10.40;66.60
27114;DHT22;14648;49.730;8.614;2023-04-25T05:50:05;10.30;66.40
27114;DHT22;14648;49.730;8.614;2023-04-25T05:52:31;10.30;66.40
27114;DHT22;14648;49.730;8.614;2023-04-25T05:54:57;10.10;66.20
27114;DHT22;14648;49.730;8.614;2023-04-25T05:57:26;10.10;66.30
27114;DHT22;14648;49.730;8.614;2023-04-25T05:59:53;10.00;66.10
27114;DHT22;14648;49.730;8.614;2023-04-25T06:02:22;10.00;66.10
27114;DHT22;14648;49.730;8.614;2023-04-25T06:04:49;9.90;66.00
27114;DHT22;14648;49.730;8.614;2023-04-25T06:07:16;9.90;66.00
27114;DHT22;14648;49.730;8.614;2023-04-25T06:09:43;9.80;65.80
27114;DHT22;14648;49.730;8.614;2023-04-25T06:12:09;9.80;65.90
27114;DHT22;14648;49.730;8.614;2023-04-25T06:14:35;9.80;65.90
27114;DHT22;14648;49.730;8.614;2023-04-25T06:17:02;9.80;65.90
27114;DHT22;14648;49.730;8.614;2023-04-25T06:19:35;9.80;65.80
27114;DHT22;14648;49.730;8.614;2023-04-25T06:22:01;9.80;65.80
27114;DHT22;14648;49.730;8.614;2023-04-25T06:24:27;9.80;65.80
27114;DHT22;14648;49.730;8.614;2023-04-25T06:26:53;9.80;65.60
27114;DHT22;14648;49.730;8.614;2023-04-25T06:29:20;9.80;65.50
27114;DHT22;14648;49.730;8.614;2023-04-25T06:31:47;9.70;65.40
27114;DHT22;14648;49.730;8.614;2023-04-25T06:34:12;9.80;65.30
27114;DHT22;14648;49.730;8.614;2023-04-25T06:36:38;9.70;65.20
27114;DHT22;14648;49.730;8.614;2023-04-25T06:39:03;9.80;65.00
27114;DHT22;14648;49.730;8.614;2023-04-25T06:41:30;9.80;64.90
27114;DHT22;14648;49.730;8.614;2023-04-25T06:43:56;9.80;64.90
27114;DHT22;14648;49.730;8.614;2023-04-25T06:46:21;9.80;64.90
27114;DHT22;14648;49.730;8.614;2023-04-25T06:48:47;9.80;64.80
27114;DHT22;14648;49.730;8.614;2023-04-25T06:51:13;9.80;64.70
27114;DHT22;14648;49.730;8.614;2023-04-25T06:53:39;9.90;64.80
27114;DHT22;14648;49.730;8.614;2023-04-25T06:56:05;9.90;64.70
27114;DHT22;14648;49.730;8.614;2023-04-25T06:58:31;9.90;64.60
27114;DHT22;14648;49.730;8.614;2023-04-25T07:00:57;9.90;64.50
27114;DHT22;14648;49.730;8.614;2023-04-25T07:03:23;9.90;64.40
27114;DHT22;14648;49.730;8.614;2023-04-25T07:05:49;9.90;64.30
27114;DHT22;14648;49.730;8.614;2023-04-25T07:08:16;9.90;64.30
27114;DHT22;14648;49.730;8.614;2023-04-25T07:10:42;9.90;64.20
27114;DHT22;14648;49.730;8.614;2023-04-25T07:13:08;9.90;64.20
27114;DHT22;14648;49.730;8.614;2023-04-25T07:15:33;9.90;64.10
27114;DHT22;14648;49.730;8.614;2023-04-25T07:17:59;9.90;64.10
27114;DHT22;14648;49.730;8.614;2023-04-25T07:20:25;9.90;63.90
27114;DHT22;14648;49.730;8.614;2023-04-25T07:22:52;10.00;63.70
27114;DHT22;14648;49.730;8.614;2023-04-25T07:25:19;10.00;63.70
27114;DHT22;14648;49.730;8.614;2023-04-25T07:27:45;10.00;63.70
27114;DHT22;14648;49.730;8.614;2023-04-25T07:30:11;10.00;63.70
27114;DHT22;14648;49.730;8.614;2023-04-25T07:32:38;10.10;63.60
27114;DHT22;14648;49.730;8.614;2023-04-25T07:35:04;10.10;63.50
27114;DHT22;14648;49.730;8.614;2023-04-25T07:37:30;10.10;63.60
27114;DHT22;14648;49.730;8.614;2023-04-25T07:39:59;10.20;63.40
27114;DHT22;14648;49.730;8.614;2023-04-25T07:42:25;10.20;63.20
27114;DHT22;14648;49.730;8.614;2023-04-25T07:44:50;10.20;63.00
27114;DHT22;14648;49.730;8.614;2023-04-25T07:47:17;10.20;62.80
27114;DHT22;14648;49.730;8.614;2023-04-25T07:49:44;10.20;62.60
27114;DHT22;14648;49.730;8.614;2023-04-25T07:52:11;10.20;62.60
27114;DHT22;14648;49.730;8.614;2023-04-25T07:54:37;10.20;62.50
27114;DHT22;14648;49.730;8.614;2023-04-25T07:57:03;10.30;62.50
27114;DHT22;14648;49.730;8.614;2023-04-25T07:59:29;10.20;62.30
27114;DHT22;14648;49.730;8.614;2023-04-25T08:01:54;10.30;62.30
27114;DHT22;14648;49.730;8.614;2023-04-25T08:04:22;10.30;62.10
27114;DHT22;14648;49.730;8.614;2023-04-25T08:06:48;10.30;62.00
27114;DHT22;14648;49.730;8.614;2023-04-25T08:09:13;10.30;62.10
27114;DHT22;14648;49.730;8.614;2023-04-25T08:11:41;10.40;62.00
27114;DHT22;14648;49.730;8.614;2023-04-25T08:14:07;10.50;62.00
27114;DHT22;14648;49.730;8.614;2023-04-25T08:16:33;10.60;61.80
27114;DHT22;14648;49.730;8.614;2023-04-25T08:18:59;10.60;61.50
27114;DHT22;14648;49.730;8.614;2023-04-25T08:21:25;10.70;61.40
27114;DHT22;14648;49.730;8.614;2023-04-25T08:23:53;10.70;61.10
27114;DHT22;14648;49.730;8.614;2023-04-25T08:26:18;10.70;60.90
27114;DHT22;14648;49.730;8.614;2023-04-25T08:28:44;10.70;60.80
27114;DHT22;14648;49.730;8.614;2023-04-25T08:31:10;10.70;60.60
27114;DHT22;14648;49.730;8.614;2023-04-25T08:33:36;10.70;60.50
27114;DHT22;14648;49.730;8.614;2023-04-25T08:36:02;10.70;60.50
27114;DHT22;14648;49.730;8.614;2023-04-25T08:38:31;10.80;60.50
27114;DHT22;14648;49.730;8.614;2023-04-25T08:40:57;10.90;60.40
27114;DHT22;14648;49.730;8.614;2023-04-25T08:43:26;11.00;60.20
27114;DHT22;14648;49.730;8.614;2023-04-25T08:46:00;11.10;59.90
27114;DHT22;14648;49.730;8.614;2023-04-25T08:48:32;11.20;59.40
27114;DHT22;14648;49.730;8.614;2023-04-25T08:50:59;11.30;59.30
27114;DHT22;14648;49.730;8.614;2023-04-25T08:53:28;11.40;59.20
27114;DHT22;14648;49.730;8.614;2023-04-25T08:55:56;11.50;59.10
27114;DHT22;14648;49.730;8.614;2023-04-25T08:58:23;11.70;59.10
27114;DHT22;14648;49.730;8.614;2023-04-25T09:00:50;11.80;58.80
27114;DHT22;14648;49.730;8.614;2023-04-25T09:03:19;12.00;58.60
27114;DHT22;14648;49.730;8.614;2023-04-25T09:05:45;12.20;58.20
27114;DHT22;14648;49.730;8.614;2023-04-25T09:08:11;12.30;58.20
27114;DHT22;14648;49.730;8.614;2023-04-25T09:10:38;12.40;57.80
27114;DHT22;14648;49.730;8.614;2023-04-25T09:13:09;12.50;57.70
27114;DHT22;14648;49.730;8.614;2023-04-25T09:15:48;12.50;57.30
27114;DHT22;14648;49.730;8.614;2023-04-25T09:18:34;12.50;57.20
27114;DHT22;14648;49.730;8.614;2023-04-25T09:21:12;12.50;57.10
27114;DHT22;14648;49.730;8.614;2023-04-25T09:23:44;12.60;57.20
27114;DHT22;14648;49.730;8.614;2023-04-25T09:26:14;12.70;57.20
27114;DHT22;14648;49.730;8.614;2023-04-25T09:28:42;12.80;56.40
27114;DHT22;14648;49.730;8.614;2023-04-25T09:31:10;12.90;56.20
27114;DHT22;14648;49.730;8.614;2023-04-25T09:33:37;12.90;56.10
27114;DHT22;14648;49.730;8.614;2023-04-25T09:36:05;13.00;55.80
27114;DHT22;14648;49.730;8.614;2023-04-25T09:38:41;13.00;55.30
27114;DHT22;14648;49.730;8.614;2023-04-25T09:41:11;12.90;55.10
27114;DHT22;14648;49.730;8.614;2023-04-25T09:43:38;12.90;55.10
27114;DHT22;14648;49.730;8.614;2023-04-25T09:46:08;12.80;54.90
27114;DHT22;14648;49.730;8.614;2023-04-25T09:48:36;12.90;54.50
27114;DHT22;14648;49.730;8.614;2023-04-25T09:51:11;13.10;54.30
27114;DHT22;14648;49.730;8.614;2023-04-25T09:53:43;13.20;53.70
27114;DHT22;14648;49.730;8.614;2023-04-25T09:56:12;13.40;53.50
27114;DHT22;14648;49.730;8.614;2023-04-25T09:58:40;13.40;53.20
27114;DHT22;14648;49.730;8.614;2023-04-25T10:01:08;13.40;52.90
27114;DHT22;14648;49.730;8.614;2023-04-25T10:03:37;13.40;52.90
27114;DHT22;14648;49.730;8.614;2023-04-25T10:06:18;13.30;52.90
27114;DHT22;14648;49.730;8.614;2023-04-25T10:08:45;13.30;52.70
27114;DHT22;14648;49.730;8.614;2023-04-25T10:11:14;13.30;52.80
27114;DHT22;14648;49.730;8.614;2023-04-25T10:13:41;13.30;52.30
27114;DHT22;14648;49.730;8.614;2023-04-25T10:16:08;13.20;51.80
27114;DHT22;14648;49.730;8.614;2023-04-25T10:18:34;13.20;51.60
27114;DHT22;14648;49.730;8.614;2023-04-25T10:21:01;13.10;51.70
27114;DHT22;14648;49.730;8.614;2023-04-25T10:23:32;13.10;51.60
27114;DHT22;14648;49.730;8.614;2023-04-25T10:26:00;13.00;51.20
27114;DHT22;14648;49.730;8.614;2023-04-25T10:28:26;12.90;51.10
27114;DHT22;14648;49.730;8.614;2023-04-25T10:31:01;12.90;51.10
27114;DHT22;14648;49.730;8.614;2023-04-25T10:33:36;12.90;50.90
27114;DHT22;14648;49.730;8.614;2023-04-25T10:36:13;13.00;50.90
27114;DHT22;14648;49.730;8.614;2023-04-25T10:38:45;13.00;50.70
27114;DHT22;14648;49.730;8.614;2023-04-25T10:41:12;12.90;50.40
27114;DHT22;14648;49.730;8.614;2023-04-25T10:43:43;12.80;50.30
27114;DHT22;14648;49.730;8.614;2023-04-25T10:49:08;12.80;50.50
27114;DHT22;14648;49.730;8.614;2023-04-25T10:51:36;12.70;50.40
27114;DHT22;14648;49.730;8.614;2023-04-25T10:54:06;12.80;50.50
27114;DHT22;14648;49.730;8.614;2023-04-25T10:56:37;12.70;50.40
27114;DHT22;14648;49.730;8.614;2023-04-25T10:59:19;12.70;50.20
27114;DHT22;14648;49.730;8.614;2023-04-25T11:01:47;12.60;49.90
27114;DHT22;14648;49.730;8.614;2023-04-25T11:09:33;12.30;50.00
27114;DHT22;14648;49.730;8.614;2023-04-25T11:12:00;12.20;49.90
27114;DHT22;14648;49.730;8.614;2023-04-25T11:14:26;12.20;50.00
27114;DHT22;14648;49.730;8.614;2023-04-25T11:16:53;12.20;50.00
27114;DHT22;14648;49.730;8.614;2023-04-25T11:19:21;12.20;50.10
27114;DHT22;14648;49.730;8.614;2023-04-25T11:21:48;12.20;49.90
27114;DHT22;14648;49.730;8.614;2023-04-25T11:24:15;12.20;49.80
27114;DHT22;14648;49.730;8.614;2023-04-25T11:26:42;12.20;49.90
27114;DHT22;14648;49.730;8.614;2023-04-25T11:29:08;12.20;49.90
27114;DHT22;14648;49.730;8.614;2023-04-25T11:31:34;12.30;50.00
27114;DHT22;14648;49.730;8.614;2023-04-25T11:34:00;12.30;49.90
27114;DHT22;14648;49.730;8.614;2023-04-25T11:36:26;12.40;49.90
27114;DHT22;14648;49.730;8.614;2023-04-25T11:38:53;12.50;49.80
27114;DHT22;14648;49.730;8.614;2023-04-25T11:41:22;12.60;49.90
27114;DHT22;14648;49.730;8.614;2023-04-25T11:43:48;12.70;49.80
27114;DHT22;14648;49.730;8.614;2023-04-25T11:46:15;12.80;49.70
27114;DHT22;14648;49.730;8.614;2023-04-25T11:48:45;12.80;49.60
27114;DHT22;14648;49.730;8.614;2023-04-25T11:51:12;12.90;49.50
27114;DHT22;14648;49.730;8.614;2023-04-25T11:53:41;13.00;49.50
27114;DHT22;14648;49.730;8.614;2023-04-25T11:56:12;13.10;50.00
27114;DHT22;14648;49.730;8.614;2023-04-25T11:58:55;13.20;49.20
27114;DHT22;14648;49.730;8.614;2023-04-25T12:01:30;13.20;49.10
27114;DHT22;14648;49.730;8.614;2023-04-25T12:03:58;13.30;49.20
27114;DHT22;14648;49.730;8.614;2023-04-25T12:06:28;13.30;49.30
27114;DHT22;14648;49.730;8.614;2023-04-25T12:09:04;13.30;49.20
27114;DHT22;14648;49.730;8.614;2023-04-25T12:11:31;13.30;49.10
27114;DHT22;14648;49.730;8.614;2023-04-25T12:14:03;13.40;49.50
27114;DHT22;14648;49.730;8.614;2023-04-25T12:16:39;13.40;49.30
27114;DHT22;14648;49.730;8.614;2023-04-25T12:19:06;13.60;49.40
27114;DHT22;14648;49.730;8.614;2023-04-25T12:21:32;13.60;49.00
27114;DHT22;14648;49.730;8.614;2023-04-25T12:24:13;13.70;48.70
27114;DHT22;14648;49.730;8.614;2023-04-25T12:26:47;13.70;48.20
27114;DHT22;14648;49.730;8.614;2023-04-25T12:29:23;13.60;48.00
27114;DHT22;14648;49.730;8.614;2023-04-25T12:31:51;13.60;48.00
27114;DHT22;14648;49.730;8.614;2023-04-25T12:34:21;13.50;48.00
27114;DHT22;14648;49.730;8.614;2023-04-25T12:36:49;13.50;47.90
27114;DHT22;14648;49.730;8.614;2023-04-25T12:39:16;13.50;47.80
27114;DHT22;14648;49.730;8.614;2023-04-25T12:41:43;13.40;47.40
27114;DHT22;14648;49.730;8.614;2023-04-25T12:44:10;13.40;47.30
27114;DHT22;14648;49.730;8.614;2023-04-25T12:46:36;13.30;47.20
27114;DHT22;14648;49.730;8.614;2023-04-25T12:49:03;13.20;46.90
27114;DHT22;14648;49.730;8.614;2023-04-25T12:51:30;13.20;46.90
27114;DHT22;14648;49.730;8.614;2023-04-25T12:53:58;13.10;47.60
27114;DHT22;14648;49.730;8.614;2023-04-25T12:56:25;13.10;46.90
27114;DHT22;14648;49.730;8.614;2023-04-25T12:58:53;13.20;46.80
27114;DHT22;14648;49.730;8.614;2023-04-25T13:01:19;13.20;46.80
27114;DHT22;14648;49.730;8.614;2023-04-25T13:03:48;13.20;46.70
27114;DHT22;14648;49.730;8.614;2023-04-25T13:06:16;13.30;46.80
27114;DHT22;14648;49.730;8.614;2023-04-25T13:08:43;13.30;46.70
27114;DHT22;14648;49.730;8.614;2023-04-25T13:11:09;13.40;46.70
27114;DHT22;14648;49.730;8.614;2023-04-25T13:13:35;13.50;46.70
27114;DHT22;14648;49.730;8.614;2023-04-25T13:16:01;13.60;46.80
27114;DHT22;14648;49.730;8.614;2023-04-25T13:18:28;13.70;46.90
27114;DHT22;14648;49.730;8.614;2023-04-25T13:20:55;13.80;46.70
27114;DHT22;14648;49.730;8.614;2023-04-25T13:23:21;13.80;46.60
27114;DHT22;14648;49.730;8.614;2023-04-25T13:25:47;13.90;46.50
27114;DHT22;14648;49.730;8.614;2023-04-25T13:28:13;14.10;46.60
27114;DHT22;14648;49.730;8.614;2023-04-25T13:30:40;14.50;46.40
27114;DHT22;14648;49.730;8.614;2023-04-25T13:33:06;14.90;46.00
27114;DHT22;14648;49.730;8.614;2023-04-25T13:35:33;15.00;45.40
27114;DHT22;14648;49.730;8.614;2023-04-25T13:37:59;15.10;45.10
27114;DHT22;14648;49.730;8.614;2023-04-25T13:40:26;14.90;44.80
27114;DHT22;14648;49.730;8.614;2023-04-25T13:42:52;14.80;44.80
27114;DHT22;14648;49.730;8.614;2023-04-25T13:45:19;14.70;44.70
27114;DHT22;14648;49.730;8.614;2023-04-25T13:47:46;14.50;44.50
27114;DHT22;14648;49.730;8.614;2023-04-25T13:50:12;14.40;44.40
27114;DHT22;14648;49.730;8.614;2023-04-25T13:52:39;14.40;44.20
27114;DHT22;14648;49.730;8.614;2023-04-25T13:55:06;14.30;44.30
27114;DHT22;14648;49.730;8.614;2023-04-25T13:57:34;14.30;44.10
27114;DHT22;14648;49.730;8.614;2023-04-25T14:00:00;14.20;43.90
27114;DHT22;14648;49.730;8.614;2023-04-25T14:02:36;14.20;43.90
27114;DHT22;14648;49.730;8.614;2023-04-25T14:05:03;14.20;43.90
27114;DHT22;14648;49.730;8.614;2023-04-25T14:07:29;14.20;43.80
27114;DHT22;14648;49.730;8.614;2023-04-25T14:09:56;14.20;43.30
27114;DHT22;14648;49.730;8.614;2023-04-25T14:12:23;14.10;43.00
27114;DHT22;14648;49.730;8.614;2023-04-25T14:14:49;14.00;42.70
27114;DHT22;14648;49.730;8.614;2023-04-25T14:17:14;13.90;42.70
27114;DHT22;14648;49.730;8.614;2023-04-25T14:19:40;13.80;42.50
27114;DHT22;14648;49.730;8.614;2023-04-25T14:22:10;13.80;42.20
27114;DHT22;14648;49.730;8.614;2023-04-25T14:24:37;13.60;42.10
27114;DHT22;14648;49.730;8.614;2023-04-25T14:27:03;13.50;42.20
27114;DHT22;14648;49.730;8.614;2023-04-25T14:29:29;13.40;42.20
27114;DHT22;14648;49.730;8.614;2023-04-25T14:31:55;13.40;42.20
27114;DHT22;14648;49.730;8.614;2023-04-25T14:34:23;13.30;42.50
27114;DHT22;14648;49.730;8.614;2023-04-25T14:36:49;13.30;42.50
27114;DHT22;14648;49.730;8.614;2023-04-25T14:39:15;13.20;42.40
27114;DHT22;14648;49.730;8.614;2023-04-25T14:41:42;13.10;43.20
27114;DHT22;14648;49.730;8.614;2023-04-25T14:44:07;13.00;42.50
27114;DHT22;14648;49.730;8.614;2023-04-25T14:46:33;13.00;42.50
27114;DHT22;14648;49.730;8.614;2023-04-25T14:48:59;13.00;42.60
27114;DHT22;14648;49.730;8.614;2023-04-25T14:51:25;12.90;42.60
27114;DHT22;14648;49.730;8.614;2023-04-25T14:53:51;12.80;42.50
27114;DHT22;14648;49.730;8.614;2023-04-25T14:56:18;12.90;42.70
27114;DHT22;14648;49.730;8.614;2023-04-25T14:58:44;12.80;42.70
27114;DHT22;14648;49.730;8.614;2023-04-25T15:01:11;12.80;42.60
27114;DHT22;14648;49.730;8.614;2023-04-25T15:03:39;12.80;42.70
27114;DHT22;14648;49.730;8.614;2023-04-25T15:06:05;12.90;42.80
27114;DHT22;14648;49.730;8.614;2023-04-25T15:08:31;12.90;42.80
27114;DHT22;14648;49.730;8.614;2023-04-25T15:10:58;12.90;42.80
27114;DHT22;14648;49.730;8.614;2023-04-25T15:13:24;12.90;42.70
27114;DHT22;14648;49.730;8.614;2023-04-25T15:15:50;12.80;42.50
27114;DHT22;14648;49.730;8.614;2023-04-25T15:18:18;12.90;42.70
27114;DHT22;14648;49.730;8.614;2023-04-25T15:20:47;12.90;42.70
27114;DHT22;14648;49.730;8.614;2023-04-25T15:23:12;12.90;43.40
27114;DHT22;14648;49.730;8.614;2023-04-25T15:25:38;12.90;42.80
27114;DHT22;14648;49.730;8.614;2023-04-25T15:28:03;13.00;42.80
27114;DHT22;14648;49.730;8.614;2023-04-25T15:30:29;13.00;42.90
27114;DHT22;14648;49.730;8.614;2023-04-25T15:32:55;13.10;42.90
27114;DHT22;14648;49.730;8.614;2023-04-25T15:35:21;13.20;42.90
27114;DHT22;14648;49.730;8.614;2023-04-25T15:37:47;13.20;42.60
27114;DHT22;14648;49.730;8.614;2023-04-25T15:40:16;13.20;42.30
27114;DHT22;14648;49.730;8.614;2023-04-25T15:42:45;13.20;42.00